createdAt,value
2022-08-08T00:00:56.574Z,17.57
2022-08-08T00:05:43.998Z,17.56
2022-08-08T00:10:41.926Z,17.50
2022-08-08T00:15:56.603Z,17.44
2022-08-08T00:20:45.844Z,17.39
2022-08-08T00:25:51.180Z,17.34
2022-08-08T00:31:00.183Z,17.29
2022-08-08T00:35:51.926Z,17.24
2022-08-08T00:41:09.293Z,17.18
2022-08-08T00:45:54.132Z,17.17
2022-08-08T00:50:53.887Z,17.14
2022-08-08T00:55:54.746Z,17.03
2022-08-08T01:00:55.753Z,16.90
2022-08-08T01:05:59.459Z,16.77
2022-08-08T01:11:01.861Z,16.62
2022-08-08T01:16:04.090Z,16.47
2022-08-08T01:21:08.648Z,16.33
2022-08-08T01:26:11.739Z,16.19
2022-08-08T01:32:05.661Z,16.06
2022-08-08T01:36:14.515Z,15.94
2022-08-08T01:41:16.168Z,15.87
2022-08-08T01:46:16.174Z,15.86
2022-08-08T01:51:32.022Z,15.89
2022-08-08T01:56:30.805Z,15.91
2022-08-08T02:01:28.209Z,15.89
2022-08-08T02:06:31.768Z,15.82
2022-08-08T02:11:59.096Z,15.73
2022-08-08T02:16:34.125Z,15.62
2022-08-08T02:21:52.712Z,15.51
2022-08-08T02:26:55.392Z,15.40
2022-08-08T02:31:58.767Z,15.31
2022-08-08T02:36:59.407Z,15.21
2022-08-08T02:42:05.716Z,15.12
2022-08-08T02:47:01.054Z,15.04
2022-08-08T02:52:32.517Z,14.96
2022-08-08T02:57:12.142Z,14.89
2022-08-08T03:02:08.217Z,14.84
2022-08-08T03:07:10.196Z,14.78
2022-08-08T03:12:13.851Z,14.73
2022-08-08T03:17:21.866Z,14.69
2022-08-08T03:22:38.607Z,14.66
2022-08-08T03:27:21.765Z,14.63
2022-08-08T03:32:41.719Z,14.59
2022-08-08T03:38:54.600Z,14.56
2022-08-08T03:42:45.708Z,14.54
2022-08-08T03:47:50.047Z,14.52
2022-08-08T03:52:49.362Z,14.50
2022-08-08T03:58:33.653Z,14.48
2022-08-08T04:02:52.597Z,14.45
2022-08-08T04:07:53.188Z,14.42
2022-08-08T04:12:53.052Z,14.42
2022-08-08T04:17:59.159Z,14.43
2022-08-08T04:22:57.041Z,14.43
2022-08-08T04:28:35.479Z,14.44
2022-08-08T04:33:01.891Z,14.45
2022-08-08T04:38:03.967Z,14.47
2022-08-08T04:43:19.042Z,14.52
2022-08-08T04:48:21.975Z,14.58
2022-08-08T04:54:26.838Z,14.67
2022-08-08T04:58:25.115Z,14.75
2022-08-08T05:04:09.746Z,14.84
2022-08-08T05:08:28.780Z,14.93
2022-08-08T05:13:29.244Z,15.03
2022-08-08T05:18:33.795Z,15.15
2022-08-08T05:23:41.320Z,15.28
2022-08-08T05:28:55.991Z,15.42
2022-08-08T05:33:44.046Z,15.58
2022-08-08T05:38:42.893Z,15.75
2022-08-08T05:44:03.767Z,15.96
2022-08-08T05:48:49.910Z,16.20
2022-08-08T05:54:24.516Z,16.48
2022-08-08T05:58:56.905Z,16.80
2022-08-08T06:03:55.708Z,17.19
2022-08-08T06:09:00.442Z,17.74
2022-08-08T06:14:02.560Z,18.57
2022-08-08T06:19:04.977Z,19.96
2022-08-08T06:24:22.821Z,22.07
2022-08-08T06:29:48.766Z,24.70
2022-08-08T06:34:27.507Z,27.60
2022-08-08T06:39:18.288Z,30.19
2022-08-08T06:44:22.960Z,32.52
2022-08-08T06:49:54.857Z,34.77
2022-08-08T06:54:24.408Z,36.94
2022-08-08T06:59:27.122Z,39.05
2022-08-08T07:04:38.876Z,40.82
2022-08-08T07:09:45.359Z,42.33
2022-08-08T07:14:32.548Z,43.81
2022-08-08T07:19:32.631Z,45.23
2022-08-08T07:24:34.056Z,46.59
2022-08-08T07:30:02.293Z,47.07
2022-08-08T07:34:48.382Z,47.24
2022-08-08T07:39:56.285Z,47.54
2022-08-08T07:44:44.175Z,47.61
2022-08-08T07:49:49.279Z,48.04
2022-08-08T07:54:48.949Z,48.28
2022-08-08T07:59:49.994Z,48.54
2022-08-08T08:04:52.367Z,48.95
2022-08-08T08:09:52.498Z,49.05
2022-08-08T08:14:55.645Z,48.73
2022-08-08T08:19:56.950Z,48.96
2022-08-08T08:24:58.584Z,50.14
2022-08-08T08:30:02.019Z,50.93
2022-08-08T08:35:03.595Z,51.48
2022-08-08T08:40:05.429Z,52.33
2022-08-08T08:45:10.282Z,52.48
2022-08-08T08:50:31.549Z,51.95
2022-08-08T08:55:12.266Z,51.89
2022-08-08T09:00:19.072Z,52.14
2022-08-08T09:05:49.221Z,52.32
2022-08-08T09:10:17.778Z,52.62
2022-08-08T09:15:40.893Z,52.53
2022-08-08T09:22:05.388Z,52.02
2022-08-08T09:25:24.558Z,51.57
2022-08-08T09:30:27.476Z,51.37
2022-08-08T09:35:32.250Z,51.14
2022-08-08T09:40:44.019Z,51.17
2022-08-08T09:46:01.973Z,51.35
2022-08-08T09:50:34.679Z,51.02
2022-08-08T09:56:04.829Z,50.53
2022-08-08T10:00:53.689Z,50.62
2022-08-08T10:05:39.779Z,50.27
2022-08-08T10:10:41.619Z,48.95
2022-08-08T10:15:42.358Z,47.59
2022-08-08T10:20:57.496Z,46.48
2022-08-08T10:25:56.969Z,45.25
2022-08-08T10:30:57.433Z,43.85
2022-08-08T10:36:20.018Z,42.19
2022-08-08T10:40:53.193Z,40.71
2022-08-08T10:45:57.329Z,39.50
2022-08-08T10:50:55.386Z,38.63
2022-08-08T10:55:56.460Z,38.09
2022-08-08T11:01:04.006Z,37.43
2022-08-08T11:06:00.900Z,36.36
2022-08-08T11:11:00.491Z,35.33
2022-08-08T11:16:07.810Z,34.51
2022-08-08T11:21:09.043Z,33.47
2022-08-08T11:26:06.440Z,32.62
2022-08-08T11:31:06.410Z,32.16
2022-08-08T11:36:08.390Z,31.67
2022-08-08T11:41:10.580Z,31.18
2022-08-08T11:46:17.385Z,30.63
2022-08-08T11:51:37.881Z,30.09
2022-08-08T11:56:15.520Z,29.63
2022-08-08T12:01:16.407Z,29.24
2022-08-08T12:06:17.517Z,28.98
2022-08-08T12:11:18.390Z,28.81
2022-08-08T12:16:20.482Z,28.64
2022-08-08T12:21:25.656Z,28.39
2022-08-08T12:26:28.356Z,28.07
2022-08-08T12:31:26.456Z,27.77
2022-08-08T12:36:28.885Z,27.58
2022-08-08T12:41:35.292Z,27.45
2022-08-08T12:46:32.561Z,27.37
2022-08-08T12:51:39.546Z,27.34
2022-08-08T12:56:34.459Z,27.31
2022-08-08T13:01:36.968Z,27.26
2022-08-08T13:06:37.516Z,27.22
2022-08-08T13:12:19.815Z,27.23
2022-08-08T13:16:40.565Z,27.23
2022-08-08T13:21:53.127Z,27.23
2022-08-08T13:26:42.638Z,27.25
2022-08-08T13:31:43.493Z,27.23
2022-08-08T13:36:44.578Z,27.18
2022-08-08T13:41:54.653Z,27.17
2022-08-08T13:46:46.533Z,27.18
2022-08-08T13:51:48.685Z,27.18
2022-08-08T13:56:59.632Z,27.20
2022-08-08T14:01:53.084Z,27.22
2022-08-08T14:06:52.558Z,27.22
2022-08-08T14:11:54.586Z,27.25
2022-08-08T14:16:55.266Z,27.30
2022-08-08T14:21:55.556Z,27.34
2022-08-08T14:26:57.643Z,27.35
2022-08-08T14:32:12.766Z,27.34
2022-08-08T14:36:59.555Z,27.32
2022-08-08T14:42:03.047Z,27.33
2022-08-08T14:47:02.637Z,27.35
2022-08-08T14:52:04.588Z,27.37
2022-08-08T14:57:05.648Z,27.38
2022-08-08T15:02:10.807Z,27.38
2022-08-08T15:07:22.565Z,27.38
2022-08-08T15:12:14.943Z,27.36
2022-08-08T15:17:16.706Z,27.33
2022-08-08T15:22:17.920Z,27.32
2022-08-08T15:28:03.225Z,27.32
2022-08-08T15:32:23.273Z,27.30
2022-08-08T15:37:23.629Z,27.25
2022-08-08T15:42:32.397Z,27.19
2022-08-08T15:47:26.581Z,27.15
2022-08-08T15:52:26.625Z,27.12
2022-08-08T15:57:26.640Z,27.11
2022-08-08T16:02:30.499Z,27.09
2022-08-08T16:07:35.875Z,27.07
2022-08-08T16:13:11.363Z,27.03
2022-08-08T16:17:57.721Z,26.99
2022-08-08T16:22:38.346Z,26.93
2022-08-08T16:27:38.889Z,26.89
2022-08-08T16:32:39.701Z,26.86
2022-08-08T16:37:47.263Z,26.83
2022-08-08T16:42:44.843Z,26.78
2022-08-08T16:47:46.906Z,26.71
2022-08-08T16:55:05.349Z,26.67
2022-08-08T16:58:14.412Z,26.65
2022-08-08T17:02:55.771Z,26.62
2022-08-08T17:07:55.827Z,26.55
2022-08-08T17:12:57.716Z,26.47
2022-08-08T17:18:03.113Z,26.38
2022-08-08T17:23:16.659Z,26.29
2022-08-08T17:28:01.701Z,26.21
2022-08-08T17:34:36.728Z,26.15
2022-08-08T17:38:03.751Z,26.07
2022-08-08T17:43:03.774Z,25.98
2022-08-08T17:48:03.799Z,25.87
2022-08-08T17:53:03.698Z,25.78
2022-08-08T17:58:05.718Z,25.72
2022-08-08T18:03:08.860Z,25.64
2022-08-08T18:08:07.725Z,25.53
2022-08-08T18:13:09.766Z,25.39
2022-08-08T18:18:29.556Z,25.24
2022-08-08T18:23:14.665Z,25.11
2022-08-08T18:28:14.350Z,25.01
2022-08-08T18:33:36.563Z,24.91
2022-08-08T18:38:19.401Z,24.80
2022-08-08T18:43:18.864Z,24.67
2022-08-08T18:48:19.024Z,24.53
2022-08-08T18:53:18.792Z,24.39
2022-08-08T18:58:21.633Z,24.24
2022-08-08T19:03:23.069Z,24.10
2022-08-08T19:08:29.351Z,23.96
2022-08-08T19:13:52.600Z,23.82
2022-08-08T19:18:31.853Z,23.66
2022-08-08T19:23:35.445Z,23.51
2022-08-08T19:28:36.536Z,23.36
2022-08-08T19:33:52.182Z,23.19
2022-08-08T19:38:37.893Z,23.03
2022-08-08T19:43:56.232Z,22.90
2022-08-08T19:48:39.880Z,22.75
2022-08-08T19:53:53.808Z,22.60
2022-08-08T19:58:41.960Z,22.45
2022-08-08T20:04:01.438Z,22.29
2022-08-08T20:08:48.210Z,22.16
2022-08-08T20:14:31.515Z,22.04
2022-08-08T20:18:52.981Z,21.92
2022-08-08T20:23:54.237Z,21.83
2022-08-08T20:28:54.899Z,21.76
2022-08-08T20:34:27.075Z,21.69
2022-08-08T20:38:57.836Z,21.59
2022-08-08T20:43:59.835Z,21.46
2022-08-08T20:49:00.094Z,21.34
2022-08-08T20:54:04.845Z,21.26
2022-08-08T20:59:03.232Z,21.21
2022-08-08T21:04:03.856Z,21.15
2022-08-08T21:09:03.889Z,21.05
2022-08-08T21:14:07.475Z,20.96
2022-08-08T21:19:05.882Z,20.89
2022-08-08T21:24:22.420Z,20.84
2022-08-08T21:29:11.866Z,20.77
2022-08-08T21:34:18.460Z,20.71
2022-08-08T21:39:14.827Z,20.66
2022-08-08T21:44:15.947Z,20.57
2022-08-08T21:49:18.002Z,20.46
2022-08-08T21:54:52.337Z,20.35
2022-08-08T21:59:21.001Z,20.24
2022-08-08T22:04:20.982Z,20.14
2022-08-08T22:09:26.796Z,20.04
2022-08-08T22:14:23.723Z,19.93
2022-08-08T22:19:24.931Z,19.83
2022-08-08T22:24:28.767Z,19.75
2022-08-08T22:29:58.759Z,19.71
2022-08-08T22:34:30.897Z,19.73
2022-08-08T22:39:45.665Z,19.76
2022-08-08T22:44:33.479Z,19.77
2022-08-08T22:49:32.955Z,19.77
2022-08-08T22:54:53.956Z,19.75
2022-08-08T22:59:58.959Z,19.76
2022-08-08T23:04:39.877Z,19.79
2022-08-08T23:09:58.560Z,19.80
2022-08-08T23:14:56.307Z,19.82
2022-08-08T23:19:48.884Z,19.87
2022-08-08T23:24:50.031Z,19.90
2022-08-08T23:29:56.132Z,19.90
2022-08-08T23:34:59.064Z,19.88
2022-08-08T23:39:55.371Z,19.86
2022-08-08T23:44:56.109Z,19.85
2022-08-08T23:50:02.795Z,19.85
2022-08-08T23:55:07.575Z,19.84
